createdAt,value
2023-03-22T00:01:31.058Z,94757.94
2023-03-22T00:03:57.867Z,94763.19
2023-03-22T00:06:24.871Z,94754.22
2023-03-22T00:08:52.778Z,94757.69
2023-03-22T00:11:20.641Z,94750.50
2023-03-22T00:13:47.306Z,94753.44
2023-03-22T00:16:14.561Z,94754.22
2023-03-22T00:18:41.335Z,94751.91
2023-03-22T00:21:11.868Z,94748.56
2023-03-22T00:23:38.489Z,94761.06
2023-03-22T00:26:05.306Z,94749.44
2023-03-22T00:28:31.865Z,94751.53
2023-03-22T00:31:00.234Z,94744.31
2023-03-22T00:33:27.957Z,94744.00
2023-03-22T00:35:57.307Z,94745.94
2023-03-22T00:38:39.516Z,94746.31
2023-03-22T00:41:19.151Z,94740.44
2023-03-22T00:43:46.571Z,94746.69
2023-03-22T00:46:13.621Z,94748.41
2023-03-22T00:48:40.352Z,94740.66
2023-03-22T00:51:07.795Z,94746.91
2023-03-22T00:53:42.404Z,94743.06
2023-03-22T00:56:10.819Z,94743.34
2023-03-22T00:59:04.341Z,94742.47
2023-03-22T01:01:31.164Z,94748.47
2023-03-22T01:03:58.000Z,94740.09
2023-03-22T01:06:24.748Z,94733.34
2023-03-22T01:08:51.476Z,94738.75
2023-03-22T01:11:18.352Z,94735.28
2023-03-22T01:13:45.638Z,94731.81
2023-03-22T01:16:13.626Z,94739.44
2023-03-22T01:18:40.831Z,94739.69
2023-03-22T01:21:08.972Z,94731.88
2023-03-22T01:23:35.907Z,94732.38
2023-03-22T01:26:02.887Z,94730.25
2023-03-22T01:28:29.601Z,94720.66
2023-03-22T01:30:56.640Z,94724.97
2023-03-22T01:33:23.346Z,94719.53
2023-03-22T01:35:51.593Z,94714.22
2023-03-22T01:38:19.782Z,94717.34
2023-03-22T01:40:57.215Z,94714.66
2023-03-22T01:43:26.055Z,94718.09
2023-03-22T01:45:53.823Z,94708.16
2023-03-22T01:48:34.342Z,94720.22
2023-03-22T01:51:04.478Z,94712.03
2023-03-22T01:53:39.425Z,94704.84
2023-03-22T01:56:07.775Z,94705.22
2023-03-22T01:58:37.054Z,94711.84
2023-03-22T02:01:06.577Z,94713.41
2023-03-22T02:04:03.145Z,94714.09
2023-03-22T02:06:30.032Z,94715.22
2023-03-22T02:09:12.471Z,94717.84
2023-03-22T02:11:41.939Z,94715.72
2023-03-22T02:14:44.083Z,94716.56
2023-03-22T02:17:51.321Z,94712.09
2023-03-22T02:20:24.779Z,94708.25
2023-03-22T02:22:53.246Z,94719.09
2023-03-22T02:25:39.701Z,94723.00
2023-03-22T02:28:26.009Z,94720.69
2023-03-22T02:30:55.601Z,94730.25
2023-03-22T02:33:45.571Z,94721.91
2023-03-22T02:36:13.733Z,94729.22
2023-03-22T02:39:04.685Z,94732.22
2023-03-22T02:41:31.419Z,94730.69
2023-03-22T02:44:06.625Z,94733.47
2023-03-22T02:46:33.259Z,94736.03
2023-03-22T02:49:14.174Z,94736.41
2023-03-22T02:51:46.908Z,94736.38
2023-03-22T02:54:21.092Z,94740.44
2023-03-22T02:56:49.961Z,94734.09
2023-03-22T02:59:17.024Z,94735.00
2023-03-22T03:01:47.823Z,94741.41
2023-03-22T03:04:18.358Z,94740.38
2023-03-22T03:06:47.165Z,94744.34
2023-03-22T03:09:18.098Z,94740.66
2023-03-22T03:11:49.283Z,94737.19
2023-03-22T03:14:23.731Z,94740.81
2023-03-22T03:16:55.755Z,94738.47
2023-03-22T03:19:34.079Z,94747.50
2023-03-22T03:22:13.557Z,94753.53
2023-03-22T03:24:46.582Z,94752.91
2023-03-22T03:27:13.364Z,94748.72
2023-03-22T03:29:40.019Z,94739.88
2023-03-22T03:32:31.543Z,94735.06
2023-03-22T03:35:01.432Z,94746.59
2023-03-22T03:37:34.500Z,94756.09
2023-03-22T03:40:06.096Z,94749.22
2023-03-22T03:42:33.612Z,94752.28
2023-03-22T03:45:01.045Z,94748.72
2023-03-22T03:47:28.827Z,94754.69
2023-03-22T03:49:55.938Z,94751.69
2023-03-22T03:52:24.580Z,94753.66
2023-03-22T03:54:52.694Z,94754.88
2023-03-22T03:57:26.240Z,94759.53
2023-03-22T03:59:53.406Z,94755.72
2023-03-22T04:02:43.711Z,94759.81
2023-03-22T04:05:24.656Z,94756.69
2023-03-22T04:07:51.247Z,94752.56
2023-03-22T04:10:18.756Z,94751.19
2023-03-22T04:12:45.375Z,94765.88
2023-03-22T04:15:16.554Z,94761.25
2023-03-22T04:17:49.372Z,94768.19
2023-03-22T04:20:17.191Z,94762.00
2023-03-22T04:22:46.892Z,94765.63
2023-03-22T04:25:14.273Z,94763.09
2023-03-22T04:27:51.300Z,94765.25
2023-03-22T04:30:20.311Z,94776.16
2023-03-22T04:33:07.274Z,94772.50
2023-03-22T04:36:05.629Z,94772.25
2023-03-22T04:38:39.825Z,94774.38
2023-03-22T04:41:10.898Z,94776.31
2023-03-22T04:43:42.621Z,94778.34
2023-03-22T04:46:13.841Z,94776.78
2023-03-22T04:48:49.892Z,94788.50
2023-03-22T04:51:17.619Z,94785.47
2023-03-22T04:54:09.644Z,94790.75
2023-03-22T04:56:41.386Z,94791.88
2023-03-22T04:59:08.172Z,94796.50
2023-03-22T05:01:35.478Z,94804.38
2023-03-22T05:04:10.780Z,94797.19
2023-03-22T05:06:37.641Z,94800.09
2023-03-22T05:09:11.970Z,94795.63
2023-03-22T05:11:40.793Z,94799.03
2023-03-22T05:14:26.305Z,94817.69
2023-03-22T05:16:53.180Z,94805.84
2023-03-22T05:19:22.266Z,94799.88
2023-03-22T05:21:57.867Z,94807.81
2023-03-22T05:24:31.639Z,94816.53
2023-03-22T05:27:01.176Z,94818.03
2023-03-22T05:29:28.584Z,94829.16
2023-03-22T05:32:04.516Z,94819.84
2023-03-22T05:34:35.873Z,94825.72
2023-03-22T05:37:13.848Z,94815.28
2023-03-22T05:39:49.464Z,94817.75
2023-03-22T05:42:16.881Z,94826.34
2023-03-22T05:44:43.904Z,94823.69
2023-03-22T05:47:12.920Z,94830.47
2023-03-22T05:49:49.800Z,94830.28
2023-03-22T05:52:17.708Z,94831.91
2023-03-22T05:54:56.008Z,94840.53
2023-03-22T05:57:22.676Z,94827.63
2023-03-22T05:59:49.343Z,94842.06
2023-03-22T06:02:23.473Z,94837.78
2023-03-22T06:04:50.340Z,94842.69
2023-03-22T06:07:18.042Z,94843.75
2023-03-22T06:09:50.308Z,94846.16
2023-03-22T06:12:24.661Z,94849.06
2023-03-22T06:15:10.948Z,94851.56
2023-03-22T06:17:51.389Z,94859.31
2023-03-22T06:20:22.740Z,94849.69
2023-03-22T06:22:55.420Z,94845.31
2023-03-22T06:25:23.226Z,94854.28
2023-03-22T06:27:50.255Z,94853.63
2023-03-22T06:30:19.168Z,94851.25
2023-03-22T06:33:09.648Z,94864.38
2023-03-22T06:35:40.595Z,94859.19
2023-03-22T06:38:09.833Z,94860.94
2023-03-22T06:40:37.858Z,94862.34
2023-03-22T06:43:07.239Z,94862.88
2023-03-22T06:45:36.152Z,94857.72
2023-03-22T06:48:04.384Z,94869.97
2023-03-22T06:50:44.952Z,94871.75
2023-03-22T06:53:15.772Z,94873.22
2023-03-22T06:55:43.248Z,94870.00
2023-03-22T06:58:13.882Z,94873.41
2023-03-22T07:00:41.476Z,94881.81
2023-03-22T07:03:08.700Z,94877.44
2023-03-22T07:05:48.728Z,94878.97
2023-03-22T07:08:16.193Z,94883.16
2023-03-22T07:10:51.594Z,94887.81
2023-03-22T07:13:21.174Z,94892.06
2023-03-22T07:15:49.766Z,94896.81
2023-03-22T07:18:34.795Z,94893.13
2023-03-22T07:21:01.893Z,94892.50
2023-03-22T07:23:29.038Z,94895.28
2023-03-22T07:26:01.297Z,94894.59
2023-03-22T07:28:32.054Z,94898.81
2023-03-22T07:31:01.356Z,94907.97
2023-03-22T07:33:31.169Z,94908.06
2023-03-22T07:35:58.155Z,94910.63
2023-03-22T07:38:25.153Z,94909.44
2023-03-22T07:40:55.029Z,94907.63
2023-03-22T07:43:25.658Z,94910.00
2023-03-22T07:45:56.134Z,94917.25
2023-03-22T07:48:48.597Z,94915.28
2023-03-22T07:51:30.408Z,94914.88
2023-03-22T07:53:57.834Z,94918.66
2023-03-22T07:56:26.103Z,94933.53
2023-03-22T07:58:53.199Z,94921.31
2023-03-22T08:01:19.825Z,94923.88
2023-03-22T08:04:02.829Z,94915.09
2023-03-22T08:06:37.890Z,94924.56
2023-03-22T08:09:05.417Z,94928.06
2023-03-22T08:11:32.497Z,94919.72
2023-03-22T08:13:59.287Z,94921.09
2023-03-22T08:16:26.398Z,94917.59
2023-03-22T08:18:53.323Z,94918.53
2023-03-22T08:21:21.362Z,94918.03
2023-03-22T08:23:53.128Z,94927.66
2023-03-22T08:26:45.749Z,94923.66
2023-03-22T08:29:23.211Z,94928.44
2023-03-22T08:31:51.019Z,94925.44
2023-03-22T08:34:18.130Z,94932.03
2023-03-22T08:36:45.422Z,94937.78
2023-03-22T08:39:12.596Z,94933.59
2023-03-22T08:41:56.320Z,94935.75
2023-03-22T08:44:25.885Z,94932.03
2023-03-22T08:46:52.832Z,94939.78
2023-03-22T08:49:19.631Z,94938.97
2023-03-22T08:51:57.697Z,94933.28
2023-03-22T08:54:56.811Z,94944.16
2023-03-22T08:57:53.744Z,94939.41
2023-03-22T09:00:48.196Z,94931.13
2023-03-22T09:03:36.975Z,94935.91
2023-03-22T09:06:04.611Z,94940.97
2023-03-22T09:08:36.912Z,94939.66
2023-03-22T09:11:09.389Z,94944.47
2023-03-22T09:13:36.295Z,94948.03
2023-03-22T09:16:04.270Z,94946.13
2023-03-22T09:18:33.051Z,94944.75
2023-03-22T09:21:03.674Z,94946.97
2023-03-22T09:23:37.985Z,94949.22
2023-03-22T09:26:08.988Z,94950.28
2023-03-22T09:28:36.828Z,94948.16
2023-03-22T09:31:06.817Z,94949.25
2023-03-22T09:33:34.708Z,94950.91
2023-03-22T09:36:02.034Z,94951.88
2023-03-22T09:38:33.294Z,94949.47
2023-03-22T09:41:27.256Z,94951.59
2023-03-22T09:43:57.044Z,94948.34
2023-03-22T09:46:37.580Z,94944.63
2023-03-22T09:49:16.202Z,94937.84
2023-03-22T09:51:47.422Z,94948.81
2023-03-22T09:54:21.415Z,94945.09
2023-03-22T09:56:54.594Z,94947.28
2023-03-22T09:59:33.105Z,94944.34
2023-03-22T10:02:01.251Z,94949.97
2023-03-22T10:04:34.035Z,94951.91
2023-03-22T10:07:19.870Z,94950.84
2023-03-22T10:09:57.853Z,94953.31
2023-03-22T10:12:28.711Z,94959.81
2023-03-22T10:15:15.708Z,94955.25
2023-03-22T10:17:44.925Z,94956.66
2023-03-22T10:20:11.632Z,94963.69
2023-03-22T10:22:40.740Z,94962.38
2023-03-22T10:25:09.589Z,94958.28
2023-03-22T10:27:37.341Z,94958.25
2023-03-22T10:30:04.026Z,94958.13
2023-03-22T10:32:56.406Z,94954.31
2023-03-22T10:35:24.691Z,94944.84
2023-03-22T10:37:52.549Z,94948.47
2023-03-22T10:40:20.804Z,94949.72
2023-03-22T10:42:55.865Z,94949.78
2023-03-22T10:45:24.475Z,94954.72
2023-03-22T10:48:00.442Z,94948.53
2023-03-22T10:50:32.349Z,94952.19
2023-03-22T10:53:11.573Z,94952.47
2023-03-22T10:55:43.534Z,94945.38
2023-03-22T10:58:12.256Z,94948.97
2023-03-22T11:00:43.597Z,94943.56
2023-03-22T11:03:22.885Z,94947.72
2023-03-22T11:05:57.981Z,94939.19
2023-03-22T11:08:24.751Z,94947.50
2023-03-22T11:10:52.495Z,94948.38
2023-03-22T11:13:22.433Z,94951.47
2023-03-22T11:15:51.321Z,94955.75
2023-03-22T11:18:18.812Z,94946.59
2023-03-22T11:20:57.620Z,94942.19
2023-03-22T11:23:25.004Z,94940.94
2023-03-22T11:25:52.625Z,94945.59
2023-03-22T11:28:21.254Z,94940.22
2023-03-22T11:30:59.132Z,94941.69
2023-03-22T11:33:26.849Z,94939.47
2023-03-22T11:35:58.030Z,94940.47
2023-03-22T11:38:26.359Z,94937.47
2023-03-22T11:40:55.062Z,94941.28
2023-03-22T11:43:27.749Z,94936.69
2023-03-22T11:45:56.754Z,94930.81
2023-03-22T11:48:27.460Z,94927.47
2023-03-22T11:50:55.814Z,94930.16
2023-03-22T11:53:24.598Z,94929.31
2023-03-22T11:55:53.217Z,94929.13
2023-03-22T11:58:40.898Z,94939.25
2023-03-22T12:01:11.010Z,94940.59
2023-03-22T12:03:39.996Z,94947.06
2023-03-22T12:06:24.486Z,94944.41
2023-03-22T12:08:54.346Z,94937.69
2023-03-22T12:11:41.192Z,94936.47
2023-03-22T12:14:21.841Z,94918.97
2023-03-22T12:16:55.071Z,94938.53
2023-03-22T12:19:40.916Z,94938.81
2023-03-22T12:22:16.364Z,94939.25
2023-03-22T12:24:43.229Z,94927.69
2023-03-22T12:27:16.813Z,94930.31
2023-03-22T12:29:47.178Z,94935.69
2023-03-22T12:32:18.287Z,94932.13
2023-03-22T12:34:48.157Z,94928.94
2023-03-22T12:37:17.841Z,94924.63
2023-03-22T12:39:54.191Z,94922.72
2023-03-22T12:42:27.404Z,94920.03
2023-03-22T12:45:05.464Z,94926.00
2023-03-22T12:47:38.543Z,94918.38
2023-03-22T12:50:11.928Z,94916.63
2023-03-22T12:52:45.610Z,94915.66
2023-03-22T12:55:24.592Z,94912.09
2023-03-22T12:57:52.625Z,94913.88
2023-03-22T13:00:20.762Z,94913.09
2023-03-22T13:03:13.995Z,94918.00
2023-03-22T13:05:41.175Z,94913.69
2023-03-22T13:08:07.905Z,94914.56
2023-03-22T13:10:36.529Z,94913.09
2023-03-22T13:13:15.630Z,94915.63
2023-03-22T13:16:00.911Z,94921.22
2023-03-22T13:18:33.461Z,94915.56
2023-03-22T13:21:09.475Z,94911.84
2023-03-22T13:23:36.209Z,94909.94
2023-03-22T13:26:04.529Z,94906.44
2023-03-22T13:28:37.186Z,94904.06
2023-03-22T13:31:04.675Z,94907.41
2023-03-22T13:33:35.930Z,94906.22
2023-03-22T13:36:07.575Z,94901.94
2023-03-22T13:38:42.537Z,94904.47
2023-03-22T13:41:20.907Z,94903.59
2023-03-22T13:44:10.793Z,94917.72
2023-03-22T13:46:37.529Z,94913.66
2023-03-22T13:49:04.345Z,94918.78
2023-03-22T13:51:32.250Z,94914.66
2023-03-22T13:54:00.536Z,94920.34
2023-03-22T13:56:43.018Z,94915.84
2023-03-22T13:59:19.165Z,94910.44
2023-03-22T14:01:49.408Z,94911.19
2023-03-22T14:04:31.347Z,94906.19
2023-03-22T14:07:19.521Z,94907.03
2023-03-22T14:09:50.151Z,94902.53
2023-03-22T14:12:27.622Z,94899.66
2023-03-22T14:15:00.391Z,94902.44
2023-03-22T14:17:31.775Z,94899.69
2023-03-22T14:19:59.186Z,94908.19
